Latest Weather Observations for Pound Creek

IDV60801

Issued at 5:02 pm EST Friday 6 May 2016 (issued every 30 minutes, with the page automatically refreshed every 10 minutes)

About weather observations | Map of weather stations | Latest weather observations for VIC | Other Formats
Station Details ID: 085099 Name: POUND CREEK Lat: -38.63 Lon: 145.81 Height: 3.0 m
Data from the previous 72 hours. | See also: Recent months at Pound Creek
Date/Time
EST
Temp
°C
App
Temp
°C
Dew
Point
Rel
Hum
%
Delta-T
°C
Wind Press
QNH
hPa
Press
MSL
hPa
Rain
since 9 am
mm
Dir
 
Spd
km/h
Gust
km/h
Spd
kts
Gust
kts
06/05:00pm 16.1 - - - - S 4 6 2 3 1014.9 1014.9 0.0
06/04:30pm 16.9 - - - - SSW 9 13 5 7 1014.7 1014.7 0.0
06/04:00pm 17.7 - - - - SW 9 15 5 8 1014.5 1014.5 0.0
06/03:30pm 18.3 - - - - SW 15 19 8 10 1014.3 1014.3 0.0
06/03:00pm 18.8 - - - - SW 19 24 10 13 1014.0 1014.0 0.0
06/02:30pm 19.7 - - - - WSW 22 32 12 17 1013.8 1013.8 0.0
06/02:00pm 20.3 - - - - SW 22 28 12 15 1013.7 1013.7 0.0
06/01:30pm 20.9 - - - - SW 17 22 9 12 1013.6 1013.6 0.0
06/01:00pm 21.6 - - - - W 19 26 10 14 1013.7 1013.7 0.0
06/12:30pm 20.1 - - - - SW 20 28 11 15 1013.9 1013.9 0.0
06/12:00pm 19.6 - - - - SW 24 30 13 16 1014.3 1014.3 0.0
06/11:30am 22.5 - - - - W 22 33 12 18 1014.4 1014.4 0.0
06/11:00am 22.6 - - - - NW 13 24 7 13 1014.4 1014.4 0.0
06/10:30am 22.4 - - - - NNW 17 30 9 16 1014.1 1014.1 0.0
06/10:00am 21.3 - - - - NNW 19 32 10 17 1014.1 1014.1 0.0
06/09:30am 20.4 - - - - NNW 20 32 11 17 1014.1 1014.1 0.0
06/09:00am 19.7 - - - - NNW 19 30 10 16 1014.1 1014.1 0.0
06/08:30am 19.1 - - - - NNW 22 35 12 19 1013.9 1013.9 0.0
06/08:00am 17.9 - - - - NNW 19 33 10 18 1013.6 1013.6 0.0
06/07:30am 17.2 - - - - NNW 15 22 8 12 1013.3 1013.3 0.0
06/07:00am 17.3 - - - - NNW 19 30 10 16 1013.2 1013.2 0.0
06/06:30am 16.8 - - - - N 13 22 7 12 1012.9 1012.9 0.0
06/06:00am 17.1 - - - - N 17 24 9 13 1012.6 1012.6 0.0
06/05:30am 17.3 - - - - N 19 28 10 15 1012.4 1012.4 0.0
06/05:00am 17.7 - - - - N 20 30 11 16 1012.3 1012.3 0.0
06/04:30am 17.1 - - - - N 17 24 9 13 1012.3 1012.3 0.0
06/04:00am 17.3 - - - - N 17 30 9 16 1012.3 1012.3 0.0
06/03:30am 17.7 - - - - N 20 32 11 17 1012.3 1012.3 0.0
06/03:00am 17.4 - - - - N 17 28 9 15 1012.4 1012.4 0.0
06/02:30am 17.1 - - - - N 15 24 8 13 1012.6 1012.6 0.0
06/02:00am 16.9 - - - - N 11 20 6 11 1012.6 1012.6 0.0
06/01:30am 16.3 - - - - N 11 17 6 9 1012.5 1012.5 0.0
06/01:00am 14.0 - - - - N 4 7 2 4 1012.5 1012.5 0.0
06/12:30am 14.9 - - - - NNE 11 15 6 8 1012.5 1012.5 0.0
06/12:00am 14.5 - - - - NNE 9 11 5 6 1012.6 1012.6 0.0
 
Date/Time
EST
Temp
°C
App
Temp
°C
Dew
Point
Rel
Hum
%
Delta-T
°C
Wind Press
QNH
hPa
Press
MSL
hPa
Rain
since 9 am
mm
Dir
 
Spd
km/h
Gust
km/h
Spd
kts
Gust
kts
05/11:30pm 14.5 - - - - N 7 9 4 5 1012.6 1012.6 0.0
05/11:00pm 15.5 - - - - N 9 13 5 7 1012.7 1012.7 0.0
05/10:30pm 15.5 - - - - N 11 15 6 8 1012.8 1012.8 0.0
05/10:00pm 15.5 - - - - N 11 15 6 8 1013.0 1013.0 0.0
05/09:30pm 15.8 - - - - N 9 13 5 7 1013.0 1013.0 0.0
05/09:00pm 16.4 - - - - N 9 15 5 8 1013.2 1013.2 0.0
05/08:30pm 17.0 - - - - NNW 15 22 8 12 1012.9 1012.9 0.0
05/08:00pm 17.0 - - - - NNW 15 24 8 13 1012.9 1012.9 0.0
05/07:30pm 17.0 - - - - NNW 15 22 8 12 1012.9 1012.9 0.0
05/07:00pm 17.5 - - - - NNW 17 26 9 14 1012.6 1012.6 0.0
05/06:30pm 17.8 - - - - NNW 19 28 10 15 1012.4 1012.4 0.0
05/06:00pm 17.8 - - - - NNW 17 28 9 15 1012.3 1012.3 0.0
05/05:30pm 18.3 - - - - NNW 20 33 11 18 1012.1 1012.1 0.0
05/05:00pm 18.9 - - - - NNW 20 35 11 19 1011.9 1011.9 0.0
05/04:30pm 19.5 - - - - NNW 20 41 11 22 1011.9 1011.9 0.0
05/04:00pm 20.0 - - - - NNW 22 39 12 21 1012.0 1012.0 0.0
05/03:30pm 20.4 - - - - NNW 22 43 12 23 1011.9 1011.9 0.0
05/03:14pm 20.6 - - - - NW 28 48 15 26 1011.8 1011.8 0.0
05/03:00pm 20.7 - - - - NW 24 41 13 22 1011.8 1011.8 0.0
05/02:30pm 20.4 - - - - NNW 24 37 13 20 1011.7 1011.7 0.0
05/02:07pm 20.1 - - - - NNW 30 48 16 26 1011.9 1011.9 0.0
05/02:00pm 20.2 - - - - NNW 33 48 18 26 1012.0 1012.0 0.0
05/01:36pm 20.1 - - - - NNW 32 54 17 29 1012.2 1012.2 0.0
05/01:30pm 20.3 - - - - NNW 28 43 15 23 1012.4 1012.4 0.0
05/01:00pm 20.2 - - - - NNW 24 44 13 24 1012.8 1012.8 0.0
05/12:30pm 19.5 - - - - NNW 32 50 17 27 1013.2 1013.2 0.0
05/12:00pm 19.4 - - - - NNW 32 52 17 28 1014.2 1014.2 0.0
05/11:38am 19.2 - - - - NNW 28 48 15 26 1014.4 1014.4 0.0
05/11:30am 19.4 - - - - NNW 24 43 13 23 1014.6 1014.6 0.0
05/11:00am 19.0 - - - - NNW 22 41 12 22 1015.3 1015.3 0.0
05/10:30am 18.6 - - - - NNW 20 37 11 20 1015.6 1015.6 0.0
05/10:00am 18.0 - - - - NNW 22 39 12 21 1015.7 1015.7 0.0
05/09:30am 17.4 - - - - NNW 22 41 12 22 1015.7 1015.7 0.0
05/09:00am 16.8 - - - - NNW 20 37 11 20 1015.9 1015.9 0.0
05/08:30am 16.1 - - - - NNW 19 33 10 18 1015.9 1015.9 0.0
05/08:00am 15.1 - - - - NNW 17 28 9 15 1015.8 1015.8 0.0
05/07:30am 14.2 - - - - N 17 26 9 14 1015.6 1015.6 0.0
05/07:00am 13.4 - - - - NNW 9 20 5 11 1015.5 1015.5 0.0
05/06:30am 13.0 - - - - NNW 9 13 5 7 1015.6 1015.6 0.0
05/06:00am 13.0 - - - - NNW 9 15 5 8 1015.5 1015.5 0.0
05/05:30am 13.3 - - - - NNW 11 17 6 9 1015.3 1015.3 0.0
05/05:00am 13.8 - - - - NNW 15 24 8 13 1015.2 1015.2 0.0
05/04:30am 13.7 - - - - NNW 17 22 9 12 1015.0 1015.0 0.0
05/04:00am 13.9 - - - - NNW 15 24 8 13 1015.2 1015.2 0.0
05/03:30am 14.5 - - - - NNW 17 28 9 15 1015.2 1015.2 0.0
05/03:00am 14.5 - - - - NNW 19 30 10 16 1015.3 1015.3 0.0
05/02:30am 14.2 - - - - NNW 13 22 7 12 1015.6 1015.6 0.0
05/02:00am 14.1 - - - - NNW 15 26 8 14 1015.5 1015.5 0.0
05/01:30am 13.6 - - - - NNW 13 20 7 11 1015.4 1015.4 0.0
05/01:00am 14.1 - - - - NNW 13 26 7 14 1015.6 1015.6 0.0
05/12:30am 14.3 - - - - NNW 17 24 9 13 1015.5 1015.5 0.0
05/12:00am 14.5 - - - - NNW 17 26 9 14 1015.6 1015.6 0.0
 
Date/Time
EST
Temp
°C
App
Temp
°C
Dew
Point
Rel
Hum
%
Delta-T
°C
Wind Press
QNH
hPa
Press
MSL
hPa
Rain
since 9 am
mm
Dir
 
Spd
km/h
Gust
km/h
Spd
kts
Gust
kts
04/11:30pm 14.5 - - - - NNW 19 28 10 15 1015.5 1015.5 0.0
04/11:00pm 14.4 - - - - NNW 19 32 10 17 1015.6 1015.6 0.0
04/10:30pm 14.3 - - - - NNW 19 30 10 16 1015.8 1015.8 0.0
04/10:00pm 13.5 - - - - N 11 19 6 10 1016.0 1016.0 0.0
04/09:30pm 13.1 - - - - NNW 11 17 6 9 1016.1 1016.1 0.0
04/09:00pm 13.1 - - - - NNW 11 17 6 9 1015.9 1015.9 0.0
04/08:30pm 12.7 - - - - N 11 17 6 9 1015.7 1015.7 0.0
04/08:00pm 12.7 - - - - N 11 19 6 10 1015.5 1015.5 0.0
04/07:30pm 12.6 - - - - N 9 17 5 9 1015.4 1015.4 0.0
04/07:00pm 12.9 - - - - N 11 15 6 8 1015.1 1015.1 0.0
04/06:30pm 11.8 - - - - N 7 9 4 5 1014.8 1014.8 0.0
04/06:00pm 12.5 - - - - N 7 9 4 5 1014.5 1014.5 0.0
04/05:30pm 13.3 - - - - NNW 6 9 3 5 1014.2 1014.2 0.0
04/05:00pm 14.4 - - - - NW 9 15 5 8 1014.0 1014.0 0.0
04/04:30pm 15.6 - - - - NW 11 20 6 11 1013.9 1013.9 0.0
04/04:00pm 15.9 - - - - NW 15 26 8 14 1013.7 1013.7 0.0
04/03:30pm 16.2 - - - - NW 17 30 9 16 1013.7 1013.7 0.0
04/03:00pm 16.0 - - - - NW 17 28 9 15 1013.7 1013.7 0.0
04/02:30pm 15.5 - - - - NW 19 28 10 15 1013.6 1013.6 0.0
04/02:00pm 15.8 - - - - WNW 17 28 9 15 1013.5 1013.5 0.0
04/01:30pm 16.1 - - - - WNW 17 28 9 15 1013.5 1013.5 0.0
04/01:00pm 15.8 - - - - NW 20 35 11 19 1013.6 1013.6 0.0
04/12:30pm 15.5 - - - - WNW 22 35 12 19 1013.9 1013.9 0.0
04/12:00pm 15.3 - - - - WNW 19 37 10 20 1014.2 1014.2 0.0
04/11:30am 15.2 - - - - WNW 19 30 10 16 1014.3 1014.3 0.0
04/11:00am 15.2 - - - - WNW 17 30 9 16 1014.4 1014.4 0.0
04/10:30am 14.0 - - - - WNW 22 37 12 20 1014.4 1014.4 0.0
04/10:00am 13.5 - - - - WNW 17 28 9 15 1014.5 1014.5 0.0
04/09:30am 12.9 - - - - NW 17 24 9 13 1014.2 1014.2 0.0
04/09:00am 12.2 - - - - NW 13 24 7 13 1014.1 1014.1 7.2
04/08:30am 11.8 - - - - NW 13 20 7 11 1013.8 1013.8 7.2
04/08:00am 10.7 - - - - NW 9 15 5 8 1013.6 1013.6 7.2
04/07:30am 9.4 - - - - NNW 7 11 4 6 1013.2 1013.2 7.2
04/07:00am 9.8 - - - - NW 6 15 3 8 1012.6 1012.6 7.2
04/06:30am 10.1 - - - - WSW 9 17 5 9 1012.5 1012.5 7.2
04/06:00am 10.2 - - - - NW 11 20 6 11 1011.6 1011.6 7.2
04/05:30am 10.2 - - - - NW 9 20 5 11 1011.2 1011.2 7.2
04/05:00am 10.4 - - - - WNW 17 30 9 16 1010.5 1010.5 7.2
04/04:30am 10.8 - - - - NW 11 22 6 12 1010.1 1010.1 7.0
04/04:00am 10.6 - - - - WNW 13 22 7 12 1009.8 1009.8 7.0
04/03:30am 10.8 - - - - WNW 11 22 6 12 1009.1 1009.1 7.0
04/03:00am 10.8 - - - - WNW 13 20 7 11 1008.8 1008.8 7.0
04/02:30am 11.2 - - - - WNW 17 28 9 15 1008.5 1008.5 7.0
04/02:00am 11.3 - - - - WNW 17 30 9 16 1008.1 1008.1 7.0
04/01:30am 11.4 - - - - WNW 15 30 8 16 1008.1 1008.1 7.0
04/01:00am 11.6 - - - - WNW 22 32 12 17 1008.0 1008.0 7.0
04/12:30am 11.7 - - - - WNW 28 43 15 23 1007.7 1007.7 6.8
04/12:00am 12.3 - - - - WNW 20 33 11 18 1007.3 1007.3 6.8
 
Date/Time
EST
Temp
°C
App
Temp
°C
Dew
Point
Rel
Hum
%
Delta-T
°C
Wind Press
QNH
hPa
Press
MSL
hPa
Rain
since 9 am
mm
Dir
 
Spd
km/h
Gust
km/h
Spd
kts
Gust
kts
03/11:30pm 12.3 - - - - WNW 15 28 8 15 1006.8 1006.8 6.8
03/11:00pm 12.2 - - - - WNW 15 26 8 14 1006.7 1006.7 6.8
03/10:30pm 12.1 - - - - NW 17 28 9 15 1006.5 1006.5 6.8
03/10:00pm 12.1 - - - - NW 13 22 7 12 1006.2 1006.2 6.8
03/09:30pm 12.3 - - - - WNW 20 37 11 20 1006.1 1006.1 6.8
03/09:00pm 12.1 - - - - WNW 17 26 9 14 1005.8 1005.8 6.8
03/08:30pm 12.8 - - - - WNW 15 35 8 19 1005.4 1005.4 6.8
03/08:00pm 13.0 - - - - WNW 19 30 10 16 1005.1 1005.1 6.8
03/07:30pm 13.2 - - - - WNW 24 35 13 19 1004.6 1004.6 6.8
03/07:00pm 13.3 - - - - WNW 30 41 16 22 1004.0 1004.0 6.8
03/06:30pm 13.6 - - - - W 39 56 21 30 1003.0 1003.0 6.8
03/06:00pm 13.9 - - - - W 35 54 19 29 1002.2 1002.2 6.8
03/05:41pm 13.6 - - - - W 32 54 17 29 1001.6 1001.6 6.8
03/05:30pm 13.5 - - - - W 33 44 18 24 1001.1 1001.1 6.8
03/05:12pm 13.3 - - - - W 43 67 23 36 1000.6 1000.6 6.8

Other Formats:

Comma delimited format used in spreadsheet applications
http://www.bom.gov.au/fwo/IDV60801/IDV60801.94886.axf

JavaScript Object Notation format (JSON) in row-major order
http://www.bom.gov.au/fwo/IDV60801/IDV60801.94886.json